Time;durP1;ratioP1;P1;durP2;ratioP2;P2;SDS_P1;SDS_P2;PMS_P1;PMS_P2;Temp;Humidity;BMP_temperature;BMP_pressure;BME280_temperature;BME280_humidity;BME280_pressure;Samples;Min_cycle;Max_cycle;Signal;HPM_P1;HPM_P2
2022/06/05 00:02:33;;;;;;;4.38;2.38;;;18.80;99.90;;;;;;5027343;28;20067;-77
2022/06/05 00:05:14;;;;;;;6.53;2.50;;;18.80;99.90;;;;;;5023379;28;20574;-79
2022/06/05 00:08:10;;;;;;;4.03;2.47;;;18.80;99.90;;;;;;5025732;28;20198;-79
2022/06/05 00:10:46;;;;;;;3.42;2.45;;;18.80;99.90;;;;;;5035998;28;20083;-80
2022/06/05 00:13:46;;;;;;;4.93;3.10;;;18.80;99.90;;;;;;5029072;28;20029;-80
2022/06/05 00:16:17;;;;;;;3.40;2.55;;;18.80;99.90;;;;;;5001280;28;20148;-76
2022/06/05 00:18:44;;;;;;;7.18;2.92;;;18.90;99.90;;;;;;5023387;28;21350;-76
2022/06/05 00:21:10;;;;;;;2.50;2.30;;;18.80;99.90;;;;;;5028734;28;20405;-78
2022/06/05 00:23:37;;;;;;;6.97;2.72;;;18.80;99.90;;;;;;5028899;28;20122;-77
2022/06/05 00:26:38;;;;;;;5.10;2.42;;;18.80;99.90;;;;;;5028136;28;20075;-76
2022/06/05 00:29:18;;;;;;;4.05;2.25;;;18.70;99.90;;;;;;5015462;28;20032;-76
2022/06/05 00:31:56;;;;;;;6.40;2.65;;;18.70;99.90;;;;;;5023007;28;20075;-77
2022/06/05 00:34:21;;;;;;;4.93;2.60;;;18.70;99.90;;;;;;5038915;28;20025;-78
2022/06/05 00:36:53;;;;;;;5.43;3.00;;;18.70;99.90;;;;;;5029517;28;20037;-77
2022/06/05 00:39:42;;;;;;;10.00;3.20;;;18.70;99.90;;;;;;5036258;28;20040;-76
2022/06/05 00:42:16;;;;;;;6.07;2.80;;;18.70;99.90;;;;;;5032961;28;21726;-77
2022/06/05 00:44:57;;;;;;;3.92;2.50;;;18.70;99.90;;;;;;5031701;28;20095;-78
2022/06/05 00:47:32;;;;;;;5.78;2.72;;;18.70;99.90;;;;;;5032769;28;20515;-73
2022/06/05 00:49:59;;;;;;;3.97;2.20;;;18.60;99.90;;;;;;5037830;28;20033;-78
2022/06/05 00:52:29;;;;;;;25.10;4.88;;;18.70;99.90;;;;;;5024647;28;20039;-79
2022/06/05 00:54:54;;;;;;;4.78;3.00;;;18.80;99.90;;;;;;5035205;28;20047;-79
2022/06/05 00:57:21;;;;;;;5.40;2.75;;;18.80;99.90;;;;;;5034984;28;20470;-79
2022/06/05 00:59:50;;;;;;;7.95;2.97;;;18.80;99.90;;;;;;5039114;28;20034;-79
2022/06/05 01:02:17;;;;;;;3.78;2.95;;;18.80;99.90;;;;;;5028877;28;20658;-80
2022/06/05 01:04:46;;;;;;;2.90;2.30;;;18.80;99.90;;;;;;5035365;28;20175;-79
2022/06/05 01:07:12;;;;;;;6.53;2.92;;;18.80;99.90;;;;;;5034082;28;20017;-79
2022/06/05 01:09:41;;;;;;;10.05;3.45;;;18.70;99.90;;;;;;5035376;28;20116;-80
2022/06/05 01:12:06;;;;;;;6.25;2.65;;;18.60;99.90;;;;;;5032520;28;20036;-79
2022/06/05 01:14:41;;;;;;;2.75;2.55;;;18.40;99.90;;;;;;5019057;28;20033;-78
2022/06/05 01:17:24;;;;;;;2.90;2.70;;;18.40;99.90;;;;;;5036007;28;20057;-79
2022/06/05 01:20:03;;;;;;;4.47;2.78;;;18.50;99.90;;;;;;5030112;28;20087;-79
2022/06/05 01:22:47;;;;;;;3.92;2.95;;;18.60;99.90;;;;;;5031500;28;20608;-79
2022/06/05 01:25:33;;;;;;;4.45;3.28;;;18.70;99.90;;;;;;5037789;28;20040;-79
2022/06/05 01:28:06;;;;;;;4.43;2.85;;;18.70;99.90;;;;;;5039743;28;20563;-79
2022/06/05 01:30:38;;;;;;;6.43;3.17;;;18.70;99.90;;;;;;5038994;28;20030;-78
2022/06/05 01:33:14;;;;;;;3.65;2.90;;;18.80;99.90;;;;;;5030278;28;20024;-78
2022/06/05 01:35:50;;;;;;;7.57;3.20;;;18.70;99.90;;;;;;5037535;28;20047;-78
2022/06/05 01:38:29;;;;;;;5.25;3.22;;;18.70;99.90;;;;;;5030391;28;20335;-78
2022/06/05 01:40:59;;;;;;;5.85;4.38;;;18.70;99.90;;;;;;5037928;28;20027;-79
2022/06/05 01:43:30;;;;;;;14.57;4.28;;;18.80;99.90;;;;;;5034507;28;20025;-74
2022/06/05 01:46:08;;;;;;;8.38;4.15;;;18.80;99.90;;;;;;5035338;28;20036;-74
2022/06/05 01:48:40;;;;;;;8.98;4.55;;;18.90;99.90;;;;;;5034482;28;20045;-74
2022/06/05 01:51:12;;;;;;;8.80;4.95;;;18.90;99.90;;;;;;5031889;28;20086;-75
2022/06/05 01:53:44;;;;;;;9.07;5.43;;;18.90;99.90;;;;;;5026415;28;20029;-74
2022/06/05 01:56:40;;;;;;;10.07;6.15;;;19.00;99.90;;;;;;5029380;28;20076;-74
2022/06/05 01:59:12;;;;;;;11.70;7.20;;;19.00;99.90;;;;;;5035110;28;20116;-74
2022/06/05 02:01:44;;;;;;;11.68;6.70;;;19.00;99.90;;;;;;5038291;28;20025;-74
2022/06/05 02:04:15;;;;;;;13.98;7.05;;;19.00;99.90;;;;;;5031603;28;20063;-74
2022/06/05 02:07:03;;;;;;;11.70;8.23;;;19.00;99.90;;;;;;5030624;28;20017;-75
2022/06/05 02:09:34;;;;;;;14.10;8.65;;;19.10;99.90;;;;;;5025794;28;20029;-74
2022/06/05 02:12:03;;;;;;;21.38;9.52;;;19.00;99.90;;;;;;5037457;28;20041;-74
2022/06/05 02:14:29;;;;;;;10.90;7.95;;;19.00;99.90;;;;;;5033314;28;20048;-74
2022/06/05 02:16:55;;;;;;;14.27;8.90;;;19.00;99.90;;;;;;5028456;28;20045;-74
2022/06/05 02:19:22;;;;;;;16.15;6.78;;;19.10;99.90;;;;;;5034198;28;20044;-74
2022/06/05 02:21:50;;;;;;;10.32;5.72;;;19.00;99.90;;;;;;5037783;28;20726;-74
2022/06/05 02:24:16;;;;;;;13.80;6.15;;;18.90;99.90;;;;;;5025879;28;20032;-74
2022/06/05 02:26:41;;;;;;;14.68;6.93;;;18.90;99.90;;;;;;5025197;28;21103;-74
2022/06/05 02:29:15;;;;;;;11.73;6.35;;;18.90;99.90;;;;;;5025897;28;20021;-74
2022/06/05 02:31:44;;;;;;;11.45;6.10;;;18.80;99.90;;;;;;5033674;28;20033;-74
2022/06/05 02:34:22;;;;;;;8.05;6.20;;;18.80;99.90;;;;;;5033808;28;20057;-74
2022/06/05 02:37:06;;;;;;;8.50;6.70;;;18.80;99.90;;;;;;5028874;28;20036;-74
2022/06/05 02:40:00;;;;;;;7.80;7.00;;;18.80;99.90;;;;;;5029966;28;20029;-74
2022/06/05 02:42:29;;;;;;;7.57;6.70;;;18.90;99.90;;;;;;5021327;28;20130;-74
2022/06/05 02:45:31;;;;;;;8.27;7.07;;;19.00;99.90;;;;;;5031190;28;20088;-74
2022/06/05 02:48:06;;;;;;;9.70;5.72;;;18.90;99.90;;;;;;5029649;28;20041;-74
2022/06/05 02:51:13;;;;;;;6.10;5.45;;;19.00;99.90;;;;;;5028847;28;20043;-74
2022/06/05 02:53:53;;;;;;;8.15;6.20;;;19.10;99.90;;;;;;5019970;28;20039;-75
2022/06/05 02:56:20;;;;;;;8.40;6.45;;;19.10;99.90;;;;;;5032335;28;20044;-74
2022/06/05 02:58:47;;;;;;;7.35;6.15;;;19.00;99.90;;;;;;5029981;28;20596;-74
2022/06/05 03:03:58;;;;;;;13.40;6.70;;;19.00;99.90;;;;;;5035234;28;20509;-73
2022/06/05 03:06:24;;;;;;;8.20;6.70;;;19.00;99.90;;;;;;5034917;28;20029;-74
2022/06/05 03:08:50;;;;;;;9.55;6.13;;;19.00;99.90;;;;;;5032072;28;20454;-75
2022/06/05 03:11:15;;;;;;;6.80;6.10;;;19.10;99.90;;;;;;5037143;28;20029;-74
2022/06/05 03:13:41;;;;;;;7.97;6.18;;;19.20;99.90;;;;;;5023879;28;20117;-74
2022/06/05 03:16:08;;;;;;;6.85;6.00;;;19.20;99.90;;;;;;5032595;28;20804;-74
2022/06/05 03:18:34;;;;;;;7.35;6.68;;;19.20;99.90;;;;;;5039895;28;20068;-74
2022/06/05 03:21:00;;;;;;;8.02;6.47;;;19.30;99.90;;;;;;5030439;28;20194;-75
2022/06/05 03:23:26;;;;;;;6.93;6.43;;;19.30;99.90;;;;;;5031948;28;20447;-74
2022/06/05 03:25:52;;;;;;;7.45;6.68;;;19.30;99.90;;;;;;5035770;28;20598;-74
2022/06/05 03:28:18;;;;;;;8.07;7.28;;;19.40;99.90;;;;;;5035134;28;20021;-74
2022/06/05 03:30:45;;;;;;;9.05;7.38;;;19.40;99.90;;;;;;5029159;28;20128;-74
2022/06/05 03:33:11;;;;;;;10.43;9.13;;;19.40;99.90;;;;;;5034917;28;20120;-74
2022/06/05 03:35:39;;;;;;;10.10;9.20;;;19.50;99.90;;;;;;5036006;28;20036;-74
2022/06/05 03:38:05;;;;;;;11.80;10.70;;;19.50;99.90;;;;;;5018520;28;20494;-74
2022/06/05 03:40:32;;;;;;;12.27;10.23;;;19.50;99.90;;;;;;5039653;28;20029;-74
2022/06/05 03:42:58;;;;;;;12.35;11.15;;;19.50;99.90;;;;;;5032001;28;20024;-74
2022/06/05 03:45:24;;;;;;;12.73;11.00;;;19.40;99.90;;;;;;5035450;28;20447;-75
2022/06/05 03:47:50;;;;;;;13.27;11.70;;;19.40;99.90;;;;;;5033431;28;20132;-74
2022/06/05 03:50:17;;;;;;;15.25;12.07;;;19.40;99.90;;;;;;5034136;28;20636;-74
2022/06/05 03:52:43;;;;;;;12.27;10.82;;;19.40;99.90;;;;;;5035174;28;20016;-74
2022/06/05 03:55:16;;;;;;;11.70;10.60;;;19.40;99.90;;;;;;5035959;28;20301;-75
2022/06/05 03:57:42;;;;;;;11.65;10.45;;;19.40;99.90;;;;;;5038775;28;20032;-74
2022/06/05 04:00:09;;;;;;;12.02;10.82;;;19.40;99.90;;;;;;5036646;28;20478;-73
2022/06/05 04:02:36;;;;;;;12.15;10.95;;;19.40;99.90;;;;;;5038031;28;20029;-73
2022/06/05 04:05:03;;;;;;;13.13;11.82;;;19.40;99.90;;;;;;5037329;28;20048;-75
2022/06/05 04:07:29;;;;;;;12.82;11.48;;;19.50;99.90;;;;;;5037279;28;20060;-74
2022/06/05 04:09:55;;;;;;;13.85;12.43;;;19.50;99.90;;;;;;5034735;28;20041;-74
2022/06/05 04:12:20;;;;;;;14.10;12.38;;;19.50;99.90;;;;;;5038032;28;20037;-74
2022/06/05 04:14:46;;;;;;;12.57;11.38;;;19.60;99.90;;;;;;5036940;28;20037;-74
2022/06/05 04:17:12;;;;;;;15.45;12.50;;;19.60;99.90;;;;;;5041502;28;20350;-74
2022/06/05 04:19:37;;;;;;;13.60;12.13;;;19.60;99.90;;;;;;5039763;28;20041;-74
2022/06/05 04:22:04;;;;;;;17.05;13.35;;;19.60;99.90;;;;;;5032107;28;20115;-73
2022/06/05 04:24:30;;;;;;;15.90;13.63;;;19.60;99.90;;;;;;5042744;28;20038;-74
2022/06/05 04:26:56;;;;;;;17.30;13.68;;;19.50;99.90;;;;;;5035591;28;21513;-74
2022/06/05 04:29:21;;;;;;;31.88;15.38;;;19.50;99.90;;;;;;5039848;28;20025;-74
2022/06/05 04:31:48;;;;;;;22.25;15.95;;;19.50;99.90;;;;;;5038124;28;20029;-73
2022/06/05 04:34:18;;;;;;;20.95;15.40;;;19.50;99.90;;;;;;5041125;28;20450;-74
2022/06/05 04:36:45;;;;;;;22.20;15.50;;;19.50;99.90;;;;;;5036823;28;20033;-74
2022/06/05 04:39:10;;;;;;;16.88;13.88;;;19.50;99.90;;;;;;5033474;28;20041;-74
2022/06/05 04:41:37;;;;;;;18.20;14.82;;;19.50;99.90;;;;;;5033840;28;20095;-80
2022/06/05 04:44:05;;;;;;;19.95;14.30;;;19.50;99.90;;;;;;5037112;28;20601;-74
2022/06/05 04:46:32;;;;;;;15.15;12.65;;;19.60;99.90;;;;;;5036536;28;20199;-73
2022/06/05 04:48:58;;;;;;;15.25;13.65;;;19.60;99.90;;;;;;5040609;28;20041;-73
2022/06/05 04:51:24;;;;;;;13.70;12.15;;;19.60;99.90;;;;;;5030133;28;20500;-73
2022/06/05 04:53:52;;;;;;;14.50;12.15;;;19.70;99.90;;;;;;5031795;28;20041;-72
2022/06/05 04:56:23;;;;;;;14.27;12.75;;;19.70;99.90;;;;;;5038254;28;20040;-73
2022/06/05 04:58:49;;;;;;;15.02;13.00;;;19.60;99.90;;;;;;5031813;28;20048;-73
2022/06/05 05:01:17;;;;;;;19.20;15.57;;;19.60;99.90;;;;;;5033729;28;20029;-73
2022/06/05 05:03:43;;;;;;;17.23;14.38;;;19.70;99.90;;;;;;5038772;28;20025;-73
2022/06/05 05:06:09;;;;;;;19.88;16.35;;;19.60;99.90;;;;;;5035653;28;20112;-73
2022/06/05 05:08:35;;;;;;;21.42;16.67;;;19.60;99.90;;;;;;5031191;28;20037;-72
2022/06/05 05:11:01;;;;;;;25.42;17.92;;;19.60;99.90;;;;;;5039495;28;20037;-73
2022/06/05 05:13:27;;;;;;;22.40;17.95;;;19.70;99.90;;;;;;5031115;28;20044;-72
2022/06/05 05:15:53;;;;;;;22.17;17.67;;;19.80;99.90;;;;;;5037952;28;20393;-73
2022/06/05 05:18:20;;;;;;;22.83;17.60;;;19.80;99.90;;;;;;5033255;28;20126;-73
2022/06/05 05:20:46;;;;;;;20.75;16.98;;;19.80;99.90;;;;;;5033876;28;20059;-72
2022/06/05 05:23:12;;;;;;;19.52;15.82;;;19.80;99.90;;;;;;5037703;28;20040;-72
2022/06/05 05:25:38;;;;;;;21.55;16.98;;;19.80;99.90;;;;;;5037875;28;20032;-73
2022/06/05 05:28:06;;;;;;;19.65;16.13;;;19.80;99.90;;;;;;5034656;28;22266;-73
2022/06/05 05:30:35;;;;;;;18.70;16.05;;;19.80;99.90;;;;;;5032560;28;20506;-72
2022/06/05 05:33:01;;;;;;;16.80;15.02;;;19.90;99.90;;;;;;5031174;28;20042;-73
2022/06/05 05:35:27;;;;;;;13.88;12.35;;;20.00;99.90;;;;;;5030177;28;20517;-82
2022/06/05 05:37:52;;;;;;;15.90;14.25;;;20.00;99.90;;;;;;5030211;28;20660;-83
2022/06/05 05:43:02;;;;;;;16.98;14.02;;;20.10;99.90;;;;;;5033901;28;20036;-81
2022/06/05 05:45:28;;;;;;;18.52;13.68;;;20.10;99.90;;;;;;5025569;28;20050;-79
2022/06/05 05:47:54;;;;;;;14.52;13.10;;;20.10;99.90;;;;;;5027474;28;20041;-80
2022/06/05 05:50:21;;;;;;;14.15;12.68;;;20.10;99.90;;;;;;5031574;28;20305;-82
2022/06/05 05:52:46;;;;;;;16.00;14.40;;;20.20;99.90;;;;;;5034184;28;22041;-73
2022/06/05 05:55:15;;;;;;;13.80;12.40;;;20.30;99.90;;;;;;5029608;28;20523;-82
2022/06/05 05:57:41;;;;;;;15.43;11.57;;;20.40;99.90;;;;;;5029156;28;20721;-85
2022/06/05 06:00:09;;;;;;;11.63;10.45;;;20.40;99.90;;;;;;5028497;28;20051;-82
2022/06/05 06:02:36;;;;;;;12.77;10.30;;;20.40;99.90;;;;;;5025311;28;20029;-84
2022/06/05 06:05:03;;;;;;;11.20;10.18;;;20.40;99.90;;;;;;5026306;28;20510;-82
2022/06/05 06:07:29;;;;;;;10.70;9.70;;;20.40;99.90;;;;;;5028296;28;20048;-83
2022/06/05 06:09:55;;;;;;;9.40;8.60;;;20.50;99.90;;;;;;5009405;28;20450;-83
2022/06/05 06:12:21;;;;;;;10.10;8.77;;;20.50;99.90;;;;;;5027977;28;20032;-81
2022/06/05 06:14:47;;;;;;;9.48;8.57;;;20.40;99.90;;;;;;5030743;28;20060;-80
2022/06/05 06:17:12;;;;;;;9.18;8.23;;;20.40;99.90;;;;;;5025446;28;20129;-82
2022/06/05 06:19:38;;;;;;;12.63;8.18;;;20.40;99.90;;;;;;5031992;28;20102;-81
2022/06/05 06:22:04;;;;;;;9.90;7.40;;;20.40;99.90;;;;;;5028542;28;20577;-81
2022/06/05 06:24:30;;;;;;;9.63;8.20;;;20.30;99.90;;;;;;5009205;28;21438;-78
2022/06/05 06:26:55;;;;;;;9.43;8.40;;;20.30;99.90;;;;;;5032694;28;20036;-83
2022/06/05 06:29:21;;;;;;;10.18;8.75;;;20.30;99.90;;;;;;5032660;28;20087;-81
2022/06/05 06:31:47;;;;;;;9.23;8.43;;;20.40;99.90;;;;;;5035734;28;20034;-76
2022/06/05 06:34:13;;;;;;;8.85;8.00;;;20.30;99.90;;;;;;5028881;28;20037;-85
2022/06/05 06:36:38;;;;;;;9.05;8.07;;;20.30;99.90;;;;;;5030282;28;20064;-79
2022/06/05 06:39:04;;;;;;;10.32;9.23;;;20.30;99.90;;;;;;5031024;28;20119;-78
2022/06/05 06:41:30;;;;;;;8.77;7.97;;;20.30;99.90;;;;;;5035477;28;20025;-81
2022/06/05 06:43:56;;;;;;;9.02;8.25;;;20.40;99.90;;;;;;5031024;28;20429;-77
2022/06/05 06:46:22;;;;;;;9.85;8.60;;;20.40;99.90;;;;;;5029530;28;20403;-80
2022/06/05 06:48:48;;;;;;;8.88;8.00;;;20.30;99.90;;;;;;5019615;28;20494;-83
2022/06/05 06:51:16;;;;;;;8.57;7.78;;;20.30;99.90;;;;;;5026965;28;20021;-82
2022/06/05 06:53:43;;;;;;;7.70;7.10;;;20.40;99.90;;;;;;5032720;28;20121;-80
2022/06/05 06:56:22;;;;;;;8.30;7.47;;;20.40;99.90;;;;;;5029138;28;20529;-79
2022/06/05 06:58:48;;;;;;;9.25;7.00;;;20.40;99.90;;;;;;5039323;28;20040;-82
2022/06/05 07:01:14;;;;;;;7.13;6.53;;;20.50;99.90;;;;;;5033916;28;20032;-77
2022/06/05 07:03:40;;;;;;;7.72;7.05;;;20.50;99.90;;;;;;5033607;28;20037;-79
2022/06/05 07:06:12;;;;;;;7.55;6.85;;;20.50;99.90;;;;;;5029963;28;20037;-78
2022/06/05 07:08:38;;;;;;;10.80;6.85;;;20.60;99.90;;;;;;5032411;28;20029;-75
2022/06/05 07:11:06;;;;;;;8.07;7.28;;;20.60;99.90;;;;;;5029526;28;20064;-75
2022/06/05 07:13:32;;;;;;;8.25;6.68;;;20.60;99.90;;;;;;5034456;28;20545;-76
2022/06/05 07:15:58;;;;;;;8.00;5.97;;;20.50;99.90;;;;;;5033322;28;20147;-75
2022/06/05 07:18:23;;;;;;;6.97;6.28;;;20.50;99.90;;;;;;5037004;28;20156;-74
2022/06/05 07:20:50;;;;;;;6.70;6.10;;;20.50;99.90;;;;;;5033703;28;20482;-75
2022/06/05 07:23:16;;;;;;;8.88;6.80;;;20.60;99.90;;;;;;5039287;28;20086;-76
2022/06/05 07:25:47;;;;;;;11.73;7.40;;;20.60;99.90;;;;;;5032857;28;20033;-77
2022/06/05 07:28:13;;;;;;;7.72;7.03;;;20.60;99.90;;;;;;5034449;28;20592;-77
2022/06/05 07:30:38;;;;;;;6.90;6.30;;;20.60;99.90;;;;;;5036721;28;20102;-76
2022/06/05 07:33:04;;;;;;;8.68;6.55;;;20.60;99.90;;;;;;5028891;28;21325;-78
2022/06/05 07:35:30;;;;;;;9.02;6.53;;;20.70;99.90;;;;;;5026487;28;20519;-76
2022/06/05 07:37:55;;;;;;;6.25;5.75;;;20.70;99.90;;;;;;5034411;28;20048;-75
2022/06/05 07:40:21;;;;;;;6.07;5.53;;;20.80;99.90;;;;;;5031280;28;20040;-77
2022/06/05 07:42:47;;;;;;;6.50;5.85;;;20.80;99.90;;;;;;5030541;28;20032;-78
2022/06/05 07:45:15;;;;;;;6.00;5.50;;;20.90;99.90;;;;;;5034070;28;20032;-77
2022/06/05 08:02:40;;;;;;;5.32;4.82;;;21.40;99.90;;;;;;5027064;28;20052;-78
2022/06/05 08:05:06;;;;;;;4.85;4.47;;;21.30;99.90;;;;;;5047197;28;20040;-81
2022/06/05 08:07:33;;;;;;;4.38;4.00;;;21.30;99.90;;;;;;5034570;28;20420;-78
2022/06/05 08:10:00;;;;;;;5.53;5.03;;;21.30;99.90;;;;;;5045559;28;20024;-77
2022/06/05 08:12:29;;;;;;;6.60;4.75;;;21.40;99.90;;;;;;5049588;28;20699;-76
2022/06/05 08:14:56;;;;;;;5.38;4.20;;;21.30;99.90;;;;;;5061176;28;20028;-81
2022/06/05 08:17:26;;;;;;;5.45;4.40;;;21.30;99.90;;;;;;5036725;28;20120;-76
2022/06/05 08:19:52;;;;;;;4.53;4.13;;;21.40;99.90;;;;;;5041033;28;20382;-82
2022/06/05 08:22:21;;;;;;;5.32;3.95;;;21.40;99.90;;;;;;5041546;28;20033;-80
2022/06/05 08:24:47;;;;;;;4.70;4.30;;;21.40;99.90;;;;;;5034074;28;20049;-75
2022/06/05 08:27:16;;;;;;;4.93;3.40;;;21.40;99.90;;;;;;5047541;28;20578;-75
2022/06/05 08:29:42;;;;;;;3.40;3.10;;;21.50;99.90;;;;;;5043481;28;20577;-77
2022/06/05 08:32:09;;;;;;;3.40;3.20;;;21.60;99.90;;;;;;5044580;28;20043;-79
2022/06/05 08:34:35;;;;;;;4.22;3.72;;;21.80;99.90;;;;;;5043572;28;20503;-77
2022/06/05 08:43:01;;;;;;;3.10;2.80;;;21.90;99.90;;;;;;5045503;28;20048;-76
2022/06/05 08:45:49;;;;;;;5.50;3.33;;;22.00;99.90;;;;;;5053345;28;20033;-77
2022/06/05 08:48:24;;;;;;;3.30;3.10;;;22.10;99.90;;;;;;5051984;28;20033;-77
2022/06/05 08:50:55;;;;;;;3.80;3.08;;;22.10;99.90;;;;;;5057663;28;20067;-77
2022/06/05 08:54:06;;;;;;;3.38;3.08;;;22.10;99.90;;;;;;5054758;28;20485;-76
2022/06/05 08:56:40;;;;;;;3.63;3.30;;;22.20;99.90;;;;;;4974080;28;20384;-81
2022/06/05 08:59:18;;;;;;;3.65;2.72;;;22.30;99.90;;;;;;4971807;28;21021;-79
2022/06/05 09:01:53;;;;;;;3.25;2.95;;;22.40;99.90;;;;;;5012119;28;20167;-81
2022/06/05 09:04:43;;;;;;;3.88;3.47;;;22.60;99.90;;;;;;5057424;28;20933;-76
2022/06/05 09:07:24;;;;;;;3.55;3.25;;;22.70;99.90;;;;;;5055497;28;20033;-77
2022/06/05 09:10:04;;;;;;;4.50;3.60;;;22.80;99.90;;;;;;5049953;28;20044;-74
2022/06/05 09:12:41;;;;;;;3.97;3.22;;;22.90;99.90;;;;;;5044490;28;20029;-81
2022/06/05 09:15:24;;;;;;;4.68;3.75;;;22.90;99.90;;;;;;5017660;28;20131;-75
2022/06/05 09:17:57;;;;;;;3.90;3.60;;;22.80;99.90;;;;;;5033496;28;22093;-75
2022/06/05 09:20:44;;;;;;;4.20;3.30;;;22.80;99.90;;;;;;5048502;28;20404;-77
2022/06/05 09:23:20;;;;;;;3.90;3.60;;;22.60;99.90;;;;;;5038691;28;20805;-76
2022/06/05 09:25:54;;;;;;;3.30;3.10;;;22.60;99.90;;;;;;5043070;28;20105;-83
2022/06/05 09:28:52;;;;;;;3.95;3.58;;;22.60;99.90;;;;;;5037712;28;20582;-82
2022/06/05 09:31:30;;;;;;;4.07;3.38;;;22.60;99.90;;;;;;5048438;28;20044;-74
2022/06/05 09:33:59;;;;;;;6.35;3.85;;;22.60;99.90;;;;;;5054720;28;20032;-74
2022/06/05 09:36:27;;;;;;;5.57;3.75;;;22.60;99.90;;;;;;5061362;28;20696;-72
2022/06/05 09:39:16;;;;;;;4.22;3.83;;;22.60;99.90;;;;;;5049973;28;20048;-71
2022/06/05 09:42:08;;;;;;;5.20;3.85;;;22.60;99.90;;;;;;5040310;28;20118;-72
2022/06/05 09:45:13;;;;;;;4.47;4.07;;;22.70;99.90;;;;;;5003278;28;20040;-74
2022/06/05 09:47:46;;;;;;;6.22;4.30;;;22.80;99.90;;;;;;5054115;28;20107;-75
2022/06/05 09:50:25;;;;;;;6.22;3.80;;;23.00;99.90;;;;;;5051173;28;20484;-77
2022/06/05 09:52:51;;;;;;;4.32;4.00;;;23.00;99.90;;;;;;5045563;28;20102;-79
2022/06/05 09:55:30;;;;;;;4.32;3.90;;;23.10;99.90;;;;;;5043463;28;20032;-78
2022/06/05 09:58:27;;;;;;;8.32;4.63;;;23.10;99.90;;;;;;5046103;28;20421;-75
2022/06/05 10:00:59;;;;;;;4.88;3.97;;;23.10;99.90;;;;;;5040287;28;20036;-73
2022/06/05 10:03:35;;;;;;;4.50;3.92;;;23.10;99.90;;;;;;5055494;28;20032;-75
2022/06/05 10:06:24;;;;;;;3.95;3.65;;;23.10;99.90;;;;;;5041314;28;20033;-76
2022/06/05 10:09:01;;;;;;;4.20;3.80;;;23.10;99.90;;;;;;5048176;28;20056;-80
2022/06/05 10:11:50;;;;;;;10.85;4.32;;;23.00;99.90;;;;;;5031151;28;20471;-76
2022/06/05 10:14:28;;;;;;;3.88;3.58;;;23.10;99.90;;;;;;5037196;28;24032;-81
2022/06/05 10:17:20;;;;;;;4.07;3.67;;;23.10;99.90;;;;;;5042636;28;20135;-87
2022/06/05 10:20:06;;;;;;;3.63;3.33;;;23.00;99.90;;;;;;5050772;28;20136;-77
2022/06/05 10:22:47;;;;;;;4.20;3.67;;;23.00;99.90;;;;;;5058056;28;20327;-84
2022/06/05 10:25:38;;;;;;;5.90;4.20;;;23.00;99.90;;;;;;5054091;28;20036;-89
2022/06/05 10:28:22;;;;;;;4.03;3.67;;;23.20;99.90;;;;;;5048585;28;20041;-77
2022/06/05 10:30:56;;;;;;;3.47;3.25;;;23.20;99.90;;;;;;5056626;28;20040;-84
2022/06/05 10:33:49;;;;;;;4.38;3.30;;;23.30;99.90;;;;;;5046643;28;20029;-84
2022/06/05 10:36:44;;;;;;;4.20;3.65;;;23.40;99.90;;;;;;5044895;28;20067;-80
2022/06/05 10:39:36;;;;;;;4.80;3.58;;;23.50;99.90;;;;;;5036379;28;20175;-82
2022/06/05 10:42:29;;;;;;;4.85;3.17;;;23.50;99.90;;;;;;5055306;28;20045;-78
2022/06/05 10:45:13;;;;;;;3.83;3.53;;;23.50;99.90;;;;;;5048724;28;20045;-88
2022/06/05 10:48:09;;;;;;;3.60;3.30;;;23.50;99.90;;;;;;5060596;28;20044;-78
2022/06/05 10:51:04;;;;;;;7.43;4.20;;;23.70;99.90;;;;;;5051829;28;20093;-79
2022/06/05 10:53:52;;;;;;;5.75;3.40;;;23.80;99.90;;;;;;5055977;28;20076;-80
2022/06/05 10:56:53;;;;;;;3.90;3.53;;;23.90;99.90;;;;;;5060920;28;20037;-78
2022/06/05 10:59:20;;;;;;;4.00;3.60;;;23.90;99.90;;;;;;5053444;28;20055;-77
2022/06/05 11:02:05;;;;;;;3.83;3.25;;;23.90;99.60;;;;;;5056678;28;20052;-73
2022/06/05 11:05:08;;;;;;;4.95;3.80;;;23.70;99.90;;;;;;5057225;28;21095;-74
2022/06/05 11:07:34;;;;;;;4.43;4.00;;;23.60;99.90;;;;;;5051559;28;20453;-75
2022/06/05 11:13:39;;;;;;;5.65;3.78;;;23.60;99.90;;;;;;5052360;28;20116;-79
2022/06/05 11:16:19;;;;;;;4.80;4.05;;;23.60;99.90;;;;;;5055292;28;20456;-86
2022/06/05 11:18:53;;;;;;;4.43;4.03;;;23.60;99.90;;;;;;5047771;28;20036;-87
2022/06/05 11:21:22;;;;;;;7.07;3.45;;;23.70;99.60;;;;;;5059707;28;20481;-77
2022/06/05 11:23:53;;;;;;;9.57;3.83;;;23.80;97.70;;;;;;5059053;28;20092;-78
2022/06/05 11:26:32;;;;;;;5.90;2.80;;;23.80;99.20;;;;;;5053367;28;20032;-80
2022/06/05 11:29:18;;;;;;;3.28;2.90;;;23.90;98.30;;;;;;5047053;28;20037;-80
2022/06/05 11:32:21;;;;;;;2.88;2.60;;;24.00;97.40;;;;;;5057281;28;20037;-76
2022/06/05 11:35:20;;;;;;;3.88;3.13;;;24.00;97.30;;;;;;5059250;28;20113;-80
2022/06/05 11:38:13;;;;;;;4.55;3.00;;;24.00;97.40;;;;;;5055787;28;20084;-81
2022/06/05 11:41:02;;;;;;;5.25;3.15;;;24.10;97.80;;;;;;5055455;28;20360;-75
2022/06/05 11:43:34;;;;;;;3.33;2.97;;;24.20;97.60;;;;;;5055252;28;20955;-86
2022/06/05 11:46:09;;;;;;;3.00;2.80;;;24.20;98.20;;;;;;5052117;28;20519;-84
2022/06/05 11:48:43;;;;;;;3.08;2.83;;;24.20;97.40;;;;;;5054837;28;20192;-84
2022/06/05 11:51:38;;;;;;;3.40;2.60;;;24.20;97.60;;;;;;5059747;28;20048;-85
2022/06/05 11:54:29;;;;;;;3.40;3.08;;;24.20;96.90;;;;;;5051173;28;20124;-86
2022/06/05 11:57:07;;;;;;;4.78;3.38;;;24.30;96.50;;;;;;5047931;28;20141;-81
2022/06/05 11:59:57;;;;;;;3.67;3.38;;;24.30;95.80;;;;;;5056483;28;20052;-86
2022/06/05 12:02:35;;;;;;;5.20;4.80;;;24.30;96.00;;;;;;5057532;28;20046;-76
2022/06/05 12:05:36;;;;;;;2.60;2.42;;;24.40;95.20;;;;;;5054075;28;20040;-76
2022/06/05 12:08:30;;;;;;;3.42;2.72;;;24.50;94.50;;;;;;5026299;28;20028;-77
2022/06/05 12:11:16;;;;;;;6.57;3.28;;;24.50;94.30;;;;;;5045549;28;20047;-74
2022/06/05 12:14:12;;;;;;;2.97;2.75;;;24.50;94.80;;;;;;5050984;28;20033;-79
2022/06/05 12:16:54;;;;;;;2.97;2.50;;;24.50;95.00;;;;;;5052097;28;20051;-80
2022/06/05 12:19:27;;;;;;;;;;;24.50;95.40;;;;;;5058261;28;20064;-82
2022/06/05 12:22:04;;;;;;;4.78;4.38;;;24.60;94.40;;;;;;5048783;28;19912;-81
2022/06/05 12:24:50;;;;;;;7.60;3.40;;;24.50;94.50;;;;;;5058226;28;20036;-80
2022/06/05 12:27:20;;;;;;;6.15;4.95;;;24.40;94.10;;;;;;5039792;28;20046;-83
2022/06/05 12:30:02;;;;;;;6.03;4.28;;;24.40;94.90;;;;;;5056766;28;20041;-85
2022/06/05 12:32:57;;;;;;;3.83;3.35;;;24.50;94.50;;;;;;5031196;28;20036;-74
2022/06/05 12:35:34;;;;;;;4.28;3.40;;;24.60;95.00;;;;;;5057930;28;20572;-75
2022/06/05 12:38:33;;;;;;;5.35;4.90;;;24.60;94.00;;;;;;5053916;28;20048;-73
2022/06/05 12:41:15;;;;;;;6.78;6.00;;;24.60;94.50;;;;;;5052829;28;20078;-79
2022/06/05 12:43:49;;;;;;;7.35;6.75;;;24.70;94.50;;;;;;5049435;28;20765;-78
2022/06/05 12:46:26;;;;;;;5.07;4.50;;;24.70;94.40;;;;;;5052393;28;20132;-78
2022/06/05 12:49:23;;;;;;;5.97;3.17;;;24.70;94.10;;;;;;5052796;28;20068;-75
2022/06/05 12:52:12;;;;;;;7.55;6.72;;;24.80;94.90;;;;;;5055920;28;20120;-75
2022/06/05 12:54:47;;;;;;;5.55;3.80;;;25.00;94.40;;;;;;5052795;28;20440;-72
2022/06/05 12:57:23;;;;;;;4.47;2.95;;;25.10;94.40;;;;;;5058525;28;20049;-71
2022/06/05 12:59:57;;;;;;;4.00;3.03;;;24.90;93.60;;;;;;5051019;28;20072;-74
2022/06/05 13:02:50;;;;;;;5.10;3.47;;;24.80;93.80;;;;;;5059394;28;20124;-73
2022/06/05 13:05:18;;;;;;;5.40;3.33;;;24.70;94.40;;;;;;5049507;28;20819;-73
2022/06/05 13:08:30;;;;;;;4.28;3.85;;;24.60;94.40;;;;;;5058427;28;20029;-75
2022/06/05 13:11:28;;;;;;;3.80;3.50;;;24.60;94.60;;;;;;4978831;28;20065;-74
2022/06/05 13:14:33;;;;;;;3.72;3.10;;;24.70;94.40;;;;;;4964891;28;20056;-73
2022/06/05 13:17:07;;;;;;;4.63;2.80;;;24.80;93.70;;;;;;5060010;28;20051;-73
2022/06/05 13:19:52;;;;;;;3.40;3.10;;;24.90;95.00;;;;;;5071026;28;20616;-70
2022/06/05 13:22:47;;;;;;;3.08;2.83;;;25.00;94.80;;;;;;5066462;28;20028;-75
2022/06/05 13:25:23;;;;;;;3.58;3.20;;;25.00;94.60;;;;;;5067103;28;20061;-76
2022/06/05 13:28:13;;;;;;;6.60;3.15;;;25.00;94.60;;;;;;5053158;28;20029;-74
2022/06/05 13:31:22;;;;;;;4.72;3.33;;;24.90;93.80;;;;;;5061939;28;20052;-73
2022/06/05 13:34:00;;;;;;;3.40;3.08;;;24.90;94.00;;;;;;5062796;28;20035;-72
2022/06/05 13:36:34;;;;;;;3.05;2.80;;;24.90;94.00;;;;;;5057775;28;21922;-72
2022/06/05 13:39:36;;;;;;;3.80;3.10;;;25.00;93.70;;;;;;5051865;28;20048;-71
2022/06/05 13:42:15;;;;;;;5.90;3.25;;;25.00;94.00;;;;;;5060848;28;20043;-73
2022/06/05 13:44:43;;;;;;;6.45;3.15;;;25.10;94.70;;;;;;5063733;28;20086;-73
2022/06/05 13:47:24;;;;;;;2.80;2.60;;;25.10;94.30;;;;;;5051726;28;20037;-70
2022/06/05 13:50:20;;;;;;;4.30;3.00;;;25.20;93.40;;;;;;5048418;28;20044;-73
2022/06/05 13:52:51;;;;;;;3.17;2.88;;;25.10;92.20;;;;;;5056211;28;20037;-73